createdAt,value
2018-12-24T00:01:49.672Z,100646.00
2018-12-24T00:04:20.376Z,100655.00
2018-12-24T00:06:51.346Z,100659.00
2018-12-24T00:10:08.899Z,100667.00
2018-12-24T00:12:53.286Z,100674.00
2018-12-24T00:15:24.281Z,100668.00
2018-12-24T00:18:25.437Z,100667.00
2018-12-24T00:20:56.463Z,100680.00
2018-12-24T00:23:28.626Z,100688.00
2018-12-24T00:26:01.414Z,100689.00
2018-12-24T00:28:31.980Z,100701.00
2018-12-24T00:31:02.532Z,100699.00
2018-12-24T00:33:34.480Z,100706.00
2018-12-24T00:36:32.408Z,100698.00
2018-12-24T00:39:15.778Z,100711.00
2018-12-24T00:42:43.380Z,100721.00
2018-12-24T00:45:25.482Z,100724.00
2018-12-24T00:48:16.778Z,100734.00
2018-12-24T00:51:19.618Z,100743.00
2018-12-24T00:54:19.709Z,100752.00
2018-12-24T00:56:50.573Z,100747.00
2018-12-24T00:59:53.845Z,100758.00
2018-12-24T01:03:20.991Z,100764.00
2018-12-24T01:05:53.878Z,100773.00
2018-12-24T01:09:18.193Z,100792.00
2018-12-24T01:11:48.503Z,100791.00
2018-12-24T01:14:18.982Z,100799.00
2018-12-24T01:16:49.062Z,100808.00
2018-12-24T01:19:19.155Z,100807.00
2018-12-24T01:21:49.407Z,100821.00
2018-12-24T01:24:19.465Z,100824.00
2018-12-24T01:26:49.518Z,100827.00
2018-12-24T01:29:19.497Z,100831.00
2018-12-24T01:31:49.463Z,100836.00
2018-12-24T01:34:19.423Z,100844.00
2018-12-24T01:36:49.451Z,100851.00
2018-12-24T01:39:19.438Z,100853.00
2018-12-24T01:41:50.494Z,100859.00
2018-12-24T01:44:22.395Z,100863.00
2018-12-24T01:46:56.487Z,100872.00
2018-12-24T01:49:33.527Z,100883.00
2018-12-24T01:52:06.401Z,100880.00
2018-12-24T01:54:36.665Z,100893.00
2018-12-24T01:57:06.755Z,100900.00
2018-12-24T01:59:36.925Z,100912.00
2018-12-24T02:02:08.600Z,100910.00
2018-12-24T02:04:38.980Z,100909.00
2018-12-24T02:07:09.356Z,100922.00
2018-12-24T02:09:39.964Z,100920.00
2018-12-24T02:12:11.741Z,100930.00
2018-12-24T02:14:42.193Z,100935.00
2018-12-24T02:17:12.459Z,100943.00
2018-12-24T02:19:42.944Z,100944.00
2018-12-24T02:22:13.276Z,100950.00
2018-12-24T02:24:43.604Z,100959.00
2018-12-24T02:27:13.718Z,100972.00
2018-12-24T02:29:44.490Z,100965.00
2018-12-24T02:32:15.349Z,100976.00
2018-12-24T02:34:46.208Z,100981.00
2018-12-24T02:37:16.374Z,100975.00
2018-12-24T02:39:47.307Z,100983.00
2018-12-24T02:42:17.345Z,100990.00
2018-12-24T02:44:47.251Z,100988.00
2018-12-24T02:47:17.331Z,100987.00
2018-12-24T02:49:47.561Z,100994.00
2018-12-24T02:52:18.117Z,101004.00
2018-12-24T02:54:48.757Z,101002.00
2018-12-24T02:57:18.779Z,101017.00
2018-12-24T02:59:48.840Z,101022.00
2018-12-24T03:02:18.804Z,101023.00
2018-12-24T03:04:49.314Z,101030.00
2018-12-24T03:07:19.395Z,101039.00
2018-12-24T03:09:49.463Z,101043.00
2018-12-24T03:12:19.399Z,101059.00
2018-12-24T03:14:49.543Z,101055.00
2018-12-24T03:17:19.452Z,101067.00
2018-12-24T03:19:49.363Z,101066.00
2018-12-24T03:22:19.266Z,101056.00
2018-12-24T03:24:49.334Z,101076.00
2018-12-24T03:27:19.438Z,101069.00
2018-12-24T03:29:49.439Z,101077.00
2018-12-24T03:32:19.385Z,101087.00
2018-12-24T03:34:49.392Z,101100.00
2018-12-24T03:38:13.220Z,101103.00
2018-12-24T03:40:43.954Z,101116.00
2018-12-24T03:43:17.334Z,101140.00
2018-12-24T03:46:03.512Z,101123.00
2018-12-24T03:48:35.804Z,101132.00
2018-12-24T03:51:11.397Z,101142.00
2018-12-24T03:53:43.968Z,101144.00
2018-12-24T03:56:13.945Z,101148.00
2018-12-24T03:58:43.910Z,101155.00
2018-12-24T04:01:13.827Z,101152.00
2018-12-24T04:03:43.787Z,101155.00
2018-12-24T04:06:13.695Z,101162.00
2018-12-24T04:08:43.859Z,101160.00
2018-12-24T04:11:13.763Z,101171.00
2018-12-24T04:13:43.648Z,101185.00
2018-12-24T04:16:13.625Z,101182.00
2018-12-24T04:18:43.672Z,101179.00
2018-12-24T04:21:13.575Z,101196.00
2018-12-24T04:23:43.495Z,101190.00
2018-12-24T04:26:13.523Z,101197.00
2018-12-24T04:28:43.565Z,101194.00
2018-12-24T04:31:13.624Z,101201.00
2018-12-24T04:33:43.710Z,101197.00
2018-12-24T04:36:13.794Z,101210.00
2018-12-24T04:38:43.868Z,101221.00
2018-12-24T04:41:13.906Z,101229.00
2018-12-24T04:43:43.911Z,101232.00
2018-12-24T04:46:13.896Z,101230.00
2018-12-24T04:48:43.758Z,101227.00
2018-12-24T04:51:13.731Z,101226.00
2018-12-24T04:53:43.642Z,101231.00
2018-12-24T04:56:13.562Z,101236.00
2018-12-24T04:58:43.491Z,101249.00
2018-12-24T05:01:13.385Z,101263.00
2018-12-24T05:03:43.277Z,101273.00
2018-12-24T05:06:13.175Z,101290.00
2018-12-24T05:08:43.105Z,101297.00
2018-12-24T05:11:13.044Z,101306.00
2018-12-24T05:13:42.950Z,101329.00
2018-12-24T05:16:12.856Z,101340.00
2018-12-24T05:18:42.769Z,101352.00
2018-12-24T05:21:12.694Z,101372.00
2018-12-24T05:23:42.620Z,101382.00
2018-12-24T05:26:12.616Z,101375.00
2018-12-24T05:28:42.514Z,101382.00
2018-12-24T05:31:12.494Z,101388.00
2018-12-24T05:33:42.649Z,101402.00
2018-12-24T05:36:12.851Z,101413.00
2018-12-24T05:38:42.887Z,101421.00
2018-12-24T05:41:12.830Z,101428.00
2018-12-24T05:43:49.352Z,101433.00
2018-12-24T05:46:14.619Z,101439.00
2018-12-24T05:48:44.595Z,101449.00
2018-12-24T05:51:14.681Z,101462.00
2018-12-24T05:53:44.747Z,101460.00
2018-12-24T05:56:14.885Z,101464.00
2018-12-24T05:58:44.857Z,101471.00
2018-12-24T06:01:14.769Z,101477.00
2018-12-24T06:03:44.876Z,101495.00
2018-12-24T06:06:14.937Z,101499.00
2018-12-24T06:08:45.035Z,101499.00
2018-12-24T06:11:15.268Z,101503.00
2018-12-24T06:13:45.417Z,101509.00
2018-12-24T06:16:15.429Z,101509.00
2018-12-24T06:18:45.438Z,101515.00
2018-12-24T06:21:15.379Z,101516.00
2018-12-24T06:23:45.458Z,101531.00
2018-12-24T06:26:15.356Z,101541.00
2018-12-24T06:28:45.270Z,101544.00
2018-12-24T06:31:15.299Z,101554.00
2018-12-24T06:33:45.208Z,101564.00
2018-12-24T06:36:15.274Z,101574.00
2018-12-24T06:38:45.266Z,101581.00
2018-12-24T06:41:15.389Z,101592.00
2018-12-24T06:43:45.603Z,101594.00
2018-12-24T06:46:15.730Z,101605.00
2018-12-24T06:48:45.764Z,101597.00
2018-12-24T06:51:15.924Z,101601.00
2018-12-24T06:53:46.038Z,101607.00
2018-12-24T06:56:15.958Z,101601.00
2018-12-24T06:58:46.144Z,101607.00
2018-12-24T07:01:16.201Z,101613.00
2018-12-24T07:03:48.562Z,101614.00
2018-12-24T07:06:18.641Z,101606.00
2018-12-24T07:08:48.893Z,101605.00
2018-12-24T07:11:19.042Z,101602.00
2018-12-24T07:13:49.298Z,101619.00
2018-12-24T07:16:19.423Z,101620.00
2018-12-24T07:18:49.564Z,101630.00
2018-12-24T07:21:19.932Z,101623.00
2018-12-24T07:23:51.787Z,101620.00
2018-12-24T07:26:21.758Z,101619.00
2018-12-24T07:28:59.032Z,101628.00
2018-12-24T07:31:23.787Z,101638.00
2018-12-24T07:33:53.996Z,101645.00
2018-12-24T07:36:24.008Z,101656.00
2018-12-24T07:38:54.182Z,101660.00
2018-12-24T07:41:24.294Z,101662.00
2018-12-24T07:43:54.264Z,101675.00
2018-12-24T07:46:24.446Z,101664.00
2018-12-24T07:48:54.585Z,101664.00
2018-12-24T07:51:24.650Z,101678.00
2018-12-24T07:53:54.589Z,101693.00
2018-12-24T07:56:24.578Z,101688.00
2018-12-24T07:58:54.548Z,101694.00
2018-12-24T08:01:24.512Z,101696.00
2018-12-24T08:03:54.497Z,101707.00
2018-12-24T08:06:24.389Z,101712.00
2018-12-24T08:08:54.283Z,101730.00
2018-12-24T08:11:24.468Z,101728.00
2018-12-24T08:13:54.384Z,101729.00
2018-12-24T08:16:24.699Z,101739.00
2018-12-24T08:18:54.614Z,101750.00
2018-12-24T08:21:24.878Z,101760.00
2018-12-24T08:23:54.765Z,101774.00
2018-12-24T08:26:24.664Z,101782.00
2018-12-24T08:28:54.670Z,101776.00
2018-12-24T08:31:24.671Z,101788.00
2018-12-24T08:33:54.751Z,101785.00
2018-12-24T08:36:24.743Z,101792.00
2018-12-24T08:38:54.824Z,101801.00
2018-12-24T08:41:24.710Z,101803.00
2018-12-24T08:43:55.768Z,101812.00
2018-12-24T08:46:27.368Z,101816.00
2018-12-24T08:48:58.292Z,101826.00
2018-12-24T08:51:28.210Z,101818.00
2018-12-24T08:53:58.155Z,101825.00
2018-12-24T08:56:29.207Z,101837.00
2018-12-24T08:58:59.359Z,101823.00
2018-12-24T09:01:29.250Z,101837.00
2018-12-24T09:03:59.139Z,101833.00
2018-12-24T09:06:29.119Z,101842.00
2018-12-24T09:08:58.993Z,101842.00
2018-12-24T09:11:29.060Z,101837.00
2018-12-24T09:13:59.221Z,101842.00
2018-12-24T09:16:29.268Z,101845.00
2018-12-24T09:18:59.139Z,101844.00
2018-12-24T09:21:29.428Z,101854.00
2018-12-24T09:23:59.367Z,101843.00
2018-12-24T09:26:29.390Z,101860.00
2018-12-24T09:28:59.535Z,101870.00
2018-12-24T09:31:29.527Z,101874.00
2018-12-24T09:33:59.488Z,101859.00
2018-12-24T09:36:29.437Z,101888.00
2018-12-24T09:38:59.417Z,101876.00
2018-12-24T09:41:29.318Z,101881.00
2018-12-24T09:43:59.279Z,101873.00
2018-12-24T09:46:29.291Z,101882.00
2018-12-24T09:48:59.334Z,101883.00
2018-12-24T09:51:29.287Z,101877.00
2018-12-24T09:53:59.216Z,101884.00
2018-12-24T09:56:29.204Z,101893.00
2018-12-24T09:58:59.143Z,101881.00
2018-12-24T10:01:29.100Z,101888.00
2018-12-24T10:04:09.822Z,101889.00
2018-12-24T10:06:42.453Z,101901.00
2018-12-24T10:09:14.566Z,101888.00
2018-12-24T10:11:44.498Z,101896.00
2018-12-24T10:14:14.447Z,101901.00
2018-12-24T10:16:44.368Z,101901.00
2018-12-24T10:19:14.279Z,101921.00
2018-12-24T10:21:45.517Z,101913.00
2018-12-24T10:24:15.482Z,101918.00
2018-12-24T10:26:45.453Z,101920.00
2018-12-24T10:29:15.475Z,101922.00
2018-12-24T10:31:45.467Z,101920.00
2018-12-24T10:34:19.789Z,101929.00
2018-12-24T10:36:49.824Z,101931.00
2018-12-24T10:39:21.675Z,101934.00
2018-12-24T10:41:51.978Z,101939.00
2018-12-24T10:44:22.198Z,101942.00
2018-12-24T10:46:55.747Z,101934.00
2018-12-24T10:49:26.202Z,101943.00
2018-12-24T10:51:56.368Z,101943.00
2018-12-24T10:54:26.526Z,101940.00
2018-12-24T10:56:56.594Z,101939.00
2018-12-24T10:59:27.042Z,101940.00
2018-12-24T11:01:59.538Z,101943.00
2018-12-24T11:04:31.130Z,101929.00
2018-12-24T11:07:08.275Z,101935.00
2018-12-24T11:09:39.646Z,101927.00
2018-12-24T11:12:11.072Z,101937.00
2018-12-24T11:14:42.840Z,101946.00
2018-12-24T11:17:16.605Z,101948.00
2018-12-24T11:19:46.714Z,101944.00
2018-12-24T11:22:16.650Z,101949.00
2018-12-24T11:24:46.601Z,101937.00
2018-12-24T11:27:18.375Z,101934.00
2018-12-24T11:29:49.978Z,101949.00
2018-12-24T11:32:20.790Z,101947.00
2018-12-24T11:34:50.974Z,101939.00
2018-12-24T11:37:21.112Z,101929.00
2018-12-24T11:39:51.256Z,101922.00
2018-12-24T11:42:33.243Z,101911.00
2018-12-24T11:45:12.188Z,101936.00
2018-12-24T11:47:42.416Z,101926.00
2018-12-24T11:50:16.236Z,101932.00
2018-12-24T11:52:46.654Z,101931.00
2018-12-24T11:55:16.921Z,101928.00
2018-12-24T11:57:47.711Z,101935.00
2018-12-24T12:00:18.013Z,101928.00
2018-12-24T12:02:52.532Z,101943.00
2018-12-24T12:05:34.566Z,101953.00
2018-12-24T12:08:04.879Z,101950.00
2018-12-24T12:10:34.925Z,101956.00
2018-12-24T12:13:05.124Z,101954.00
2018-12-24T12:15:42.536Z,101948.00
2018-12-24T12:18:11.079Z,101944.00
2018-12-24T12:25:36.452Z,101944.00
2018-12-24T12:28:25.889Z,101955.00
2018-12-24T12:30:55.857Z,101953.00
2018-12-24T12:33:25.830Z,101959.00
2018-12-24T12:35:55.942Z,101963.00
2018-12-24T12:38:29.889Z,101961.00
2018-12-24T12:40:59.363Z,101960.00
2018-12-24T12:47:00.445Z,101959.00
2018-12-24T12:49:39.356Z,101968.00
2018-12-24T12:52:09.696Z,101959.00
2018-12-24T12:54:40.152Z,101970.00
2018-12-24T12:57:15.673Z,101970.00
2018-12-24T12:59:45.792Z,101973.00
2018-12-24T13:02:15.877Z,101983.00
2018-12-24T13:04:45.925Z,101978.00
2018-12-24T13:07:16.047Z,101975.00
2018-12-24T13:09:46.009Z,101984.00
2018-12-24T13:12:16.004Z,101978.00
2018-12-24T13:14:46.113Z,101975.00
2018-12-24T13:17:16.449Z,101978.00
2018-12-24T13:19:46.695Z,101983.00
2018-12-24T13:22:17.629Z,101983.00
2018-12-24T13:24:47.718Z,101972.00
2018-12-24T13:27:17.800Z,101981.00
2018-12-24T13:29:47.909Z,101965.00
2018-12-24T13:32:17.954Z,101974.00
2018-12-24T13:34:48.037Z,101976.00
2018-12-24T13:37:18.982Z,101977.00
2018-12-24T13:39:49.247Z,101981.00
2018-12-24T13:42:19.407Z,101978.00
2018-12-24T13:44:49.653Z,101980.00
2018-12-24T13:47:20.293Z,101987.00
2018-12-24T13:49:52.016Z,101995.00
2018-12-24T13:52:22.169Z,101984.00
2018-12-24T13:54:52.358Z,101976.00
2018-12-24T13:57:22.629Z,101968.00
2018-12-24T13:59:52.709Z,101967.00
2018-12-24T14:02:22.643Z,101962.00
2018-12-24T14:04:55.039Z,101957.00
2018-12-24T14:07:25.130Z,101965.00
2018-12-24T14:09:58.062Z,101965.00
2018-12-24T14:12:28.041Z,101966.00
2018-12-24T14:14:58.120Z,101968.00
2018-12-24T14:17:28.080Z,101983.00
2018-12-24T14:20:01.313Z,101978.00
2018-12-24T14:22:31.468Z,101982.00
2018-12-24T14:25:01.625Z,102000.00
2018-12-24T14:27:31.714Z,101992.00
2018-12-24T14:30:01.779Z,101996.00
2018-12-24T14:32:32.156Z,101996.00
2018-12-24T14:35:02.121Z,101987.00
2018-12-24T14:37:32.040Z,101999.00
2018-12-24T14:40:05.175Z,101997.00
2018-12-24T14:42:35.512Z,101997.00
2018-12-24T14:45:06.658Z,101994.00
2018-12-24T14:47:36.737Z,101996.00
2018-12-24T14:50:08.314Z,101998.00
2018-12-24T14:52:41.146Z,101991.00
2018-12-24T14:55:11.082Z,101982.00
2018-12-24T14:57:41.122Z,101985.00
2018-12-24T15:00:11.486Z,101973.00
2018-12-24T15:02:41.419Z,101973.00
2018-12-24T15:05:11.538Z,101978.00
2018-12-24T15:07:41.419Z,101993.00
2018-12-24T15:10:11.308Z,102003.00
2018-12-24T15:12:41.294Z,102006.00
2018-12-24T15:15:11.308Z,102007.00
2018-12-24T15:17:41.386Z,102016.00
2018-12-24T15:20:11.334Z,102014.00
2018-12-24T15:22:41.297Z,102028.00
2018-12-24T15:25:11.242Z,102030.00
2018-12-24T15:27:41.287Z,102040.00
2018-12-24T15:30:11.514Z,102039.00
2018-12-24T15:32:41.486Z,102044.00
2018-12-24T15:35:11.663Z,102050.00
2018-12-24T15:37:42.554Z,102063.00
2018-12-24T15:40:13.926Z,102072.00
2018-12-24T15:42:43.874Z,102070.00
2018-12-24T15:45:13.963Z,102061.00
2018-12-24T15:47:43.980Z,102060.00
2018-12-24T15:50:13.947Z,102065.00
2018-12-24T15:52:43.889Z,102063.00
2018-12-24T15:55:14.029Z,102048.00
2018-12-24T15:57:43.995Z,102051.00
2018-12-24T16:00:14.323Z,102043.00
2018-12-24T16:02:44.462Z,102028.00
2018-12-24T16:05:14.566Z,102031.00
2018-12-24T16:07:44.527Z,102029.00
2018-12-24T16:10:14.582Z,102026.00
2018-12-24T16:12:44.739Z,102045.00
2018-12-24T16:15:14.828Z,102031.00
2018-12-24T16:17:44.768Z,102028.00
2018-12-24T16:20:16.408Z,102027.00
2018-12-24T16:22:49.493Z,102024.00
2018-12-24T16:25:19.538Z,102033.00
2018-12-24T16:27:49.575Z,102030.00
2018-12-24T16:30:19.554Z,102030.00
2018-12-24T16:32:50.575Z,102036.00
2018-12-24T16:35:20.472Z,102028.00
2018-12-24T16:37:50.490Z,102028.00
2018-12-24T16:40:20.503Z,102035.00
2018-12-24T16:42:50.608Z,102033.00
2018-12-24T16:45:20.542Z,102043.00
2018-12-24T16:47:50.552Z,102044.00
2018-12-24T16:50:20.698Z,102036.00
2018-12-24T16:52:50.840Z,102041.00
2018-12-24T16:55:20.938Z,102039.00
2018-12-24T16:57:51.930Z,102045.00
2018-12-24T17:00:22.278Z,102054.00
2018-12-24T17:02:52.312Z,102044.00
2018-12-24T17:05:22.544Z,102051.00
2018-12-24T17:07:52.592Z,102057.00
2018-12-24T17:10:22.556Z,102056.00
2018-12-24T17:12:52.591Z,102051.00
2018-12-24T17:15:22.640Z,102040.00
2018-12-24T17:17:52.549Z,102046.00
2018-12-24T17:20:22.558Z,102048.00
2018-12-24T17:22:54.950Z,102044.00
2018-12-24T17:25:25.104Z,102043.00
2018-12-24T17:27:55.952Z,102040.00
2018-12-24T17:30:26.259Z,102039.00
2018-12-24T17:32:56.606Z,102037.00
2018-12-24T17:35:26.899Z,102045.00
2018-12-24T17:37:57.098Z,102040.00
2018-12-24T17:40:27.480Z,102031.00
2018-12-24T17:42:57.675Z,102042.00
2018-12-24T17:45:27.959Z,102042.00
2018-12-24T17:47:57.860Z,102038.00
2018-12-24T17:50:29.226Z,102039.00
2018-12-24T17:52:59.415Z,102035.00
2018-12-24T17:55:29.957Z,102043.00
2018-12-24T17:58:00.315Z,102062.00
2018-12-24T18:00:30.615Z,102064.00
2018-12-24T18:03:01.021Z,102071.00
2018-12-24T18:05:32.393Z,102075.00
2018-12-24T18:08:02.804Z,102080.00
2018-12-24T18:10:33.153Z,102079.00
2018-12-24T18:13:04.553Z,102077.00
2018-12-24T18:15:34.865Z,102086.00
2018-12-24T18:18:05.161Z,102085.00
2018-12-24T18:20:35.665Z,102085.00
2018-12-24T18:23:06.097Z,102094.00
2018-12-24T18:25:38.093Z,102092.00
2018-12-24T18:28:08.463Z,102096.00
2018-12-24T18:30:41.343Z,102106.00
2018-12-24T18:33:11.625Z,102111.00
2018-12-24T18:35:44.861Z,102105.00
2018-12-24T18:38:14.930Z,102106.00
2018-12-24T18:40:45.014Z,102112.00
2018-12-24T18:43:15.083Z,102116.00
2018-12-24T18:45:45.195Z,102120.00
2018-12-24T18:48:15.333Z,102120.00
2018-12-24T18:50:45.324Z,102128.00
2018-12-24T18:53:16.351Z,102134.00
2018-12-24T18:55:46.664Z,102140.00
2018-12-24T18:58:16.915Z,102137.00
2018-12-24T19:00:47.056Z,102136.00
2018-12-24T19:03:17.180Z,102142.00
2018-12-24T19:06:06.636Z,102152.00
2018-12-24T19:08:36.724Z,102140.00
2018-12-24T19:11:08.924Z,102153.00
2018-12-24T19:13:39.116Z,102159.00
2018-12-24T19:16:11.573Z,102163.00
2018-12-24T19:18:41.889Z,102157.00
2018-12-24T19:21:12.177Z,102167.00
2018-12-24T19:23:42.508Z,102167.00
2018-12-24T19:26:12.588Z,102182.00
2018-12-24T19:28:42.799Z,102183.00
2018-12-24T19:31:13.038Z,102187.00
2018-12-24T19:33:45.145Z,102194.00
2018-12-24T19:36:16.874Z,102180.00
2018-12-24T19:38:47.222Z,102181.00
2018-12-24T19:41:17.637Z,102181.00
2018-12-24T19:43:48.076Z,102170.00
2018-12-24T19:46:18.640Z,102192.00
2018-12-24T19:48:50.173Z,102094.00
2018-12-24T19:51:21.126Z,102191.00
2018-12-24T19:53:54.043Z,102202.00
2018-12-24T19:56:24.417Z,102202.00
2018-12-24T19:58:54.906Z,102211.00
2018-12-24T20:01:25.616Z,102218.00
2018-12-24T20:03:55.855Z,102220.00
2018-12-24T20:06:25.975Z,102229.00
2018-12-24T20:08:59.010Z,102223.00
2018-12-24T20:11:29.015Z,102218.00
2018-12-24T20:14:01.911Z,102221.00
2018-12-24T20:16:31.850Z,102215.00
2018-12-24T20:19:01.873Z,102220.00
2018-12-24T20:21:31.959Z,102226.00
2018-12-24T20:24:02.036Z,102219.00
2018-12-24T20:26:32.146Z,102213.00
2018-12-24T20:29:02.170Z,102209.00
2018-12-24T20:31:32.227Z,102221.00
2018-12-24T20:34:02.286Z,102217.00
2018-12-24T20:36:32.400Z,102217.00
2018-12-24T20:39:08.457Z,102210.00
2018-12-24T20:41:38.390Z,102220.00
2018-12-24T20:44:08.440Z,102220.00
2018-12-24T20:46:38.576Z,102213.00
2018-12-24T20:49:08.510Z,102212.00
2018-12-24T20:51:38.696Z,102212.00
2018-12-24T20:54:08.831Z,102202.00
2018-12-24T20:56:38.968Z,102204.00
2018-12-24T20:59:11.768Z,102198.00
2018-12-24T21:01:41.707Z,102198.00
2018-12-24T21:04:11.814Z,102187.00
2018-12-24T21:06:41.907Z,102195.00
2018-12-24T21:09:12.008Z,102191.00
2018-12-24T21:11:42.034Z,102200.00
2018-12-24T21:14:12.084Z,102202.00
2018-12-24T21:16:42.279Z,102212.00
2018-12-24T21:19:12.370Z,102207.00
2018-12-24T21:21:42.392Z,102207.00
2018-12-24T21:24:12.491Z,102198.00
2018-12-24T21:26:42.408Z,102193.00
2018-12-24T21:29:12.412Z,102199.00
2018-12-24T21:31:42.531Z,102191.00
2018-12-24T21:34:12.551Z,102199.00
2018-12-24T21:36:42.611Z,102199.00
2018-12-24T21:39:13.083Z,102199.00
2018-12-24T21:41:44.228Z,102203.00
2018-12-24T21:44:16.347Z,102202.00
2018-12-24T21:46:46.680Z,102210.00
2018-12-24T21:49:16.840Z,102215.00
2018-12-24T21:51:46.981Z,102219.00
2018-12-24T21:54:17.121Z,102224.00
2018-12-24T21:56:47.505Z,102211.00
2018-12-24T21:59:17.588Z,102212.00
2018-12-24T22:01:47.767Z,102221.00
2018-12-24T22:04:17.864Z,102212.00
2018-12-24T22:06:48.192Z,102214.00
2018-12-24T22:09:18.192Z,102219.00
2018-12-24T22:12:00.603Z,102225.00
2018-12-24T22:14:30.855Z,102220.00
2018-12-24T22:17:00.979Z,102225.00
2018-12-24T22:19:31.273Z,102228.00
2018-12-24T22:22:01.321Z,102224.00
2018-12-24T22:24:31.352Z,102218.00
2018-12-24T22:27:01.375Z,102216.00
2018-12-24T22:29:31.365Z,102225.00
2018-12-24T22:32:01.673Z,102220.00
2018-12-24T22:34:31.667Z,102214.00
2018-12-24T22:37:01.715Z,102226.00
2018-12-24T22:39:31.832Z,102214.00
2018-12-24T22:42:01.792Z,102213.00
2018-12-24T22:44:31.934Z,102210.00
2018-12-24T22:47:02.083Z,102210.00
2018-12-24T22:49:37.837Z,102206.00
2018-12-24T22:52:07.829Z,102210.00
2018-12-24T22:54:37.862Z,102210.00
2018-12-24T22:57:11.018Z,102206.00
2018-12-24T22:59:41.212Z,102202.00
2018-12-24T23:02:14.068Z,102211.00
2018-12-24T23:04:46.369Z,102210.00
2018-12-24T23:07:18.666Z,102202.00
2018-12-24T23:09:48.632Z,102205.00
2018-12-24T23:12:19.788Z,102208.00
2018-12-24T23:14:49.984Z,102211.00
2018-12-24T23:17:20.096Z,102211.00
2018-12-24T23:19:51.650Z,102212.00
2018-12-24T23:22:24.952Z,102213.00
2018-12-24T23:24:56.503Z,102210.00
2018-12-24T23:27:27.866Z,102217.00
2018-12-24T23:29:57.898Z,102214.00
2018-12-24T23:32:30.885Z,102208.00
2018-12-24T23:35:00.879Z,102209.00
2018-12-24T23:37:30.856Z,102216.00
2018-12-24T23:40:05.549Z,102207.00
2018-12-24T23:42:37.557Z,102209.00
2018-12-24T23:45:07.838Z,102200.00
2018-12-24T23:47:40.947Z,102202.00
2018-12-24T23:50:10.829Z,102202.00
2018-12-24T23:52:43.198Z,102195.00
2018-12-24T23:55:13.364Z,102197.00
2018-12-24T23:57:43.337Z,102186.00
